Aviation Digital Data Service (ADDS)

Output produced by METARs form (0718 UTC 21 July 2018)
found at http://www.aviationweather.gov/adds/metars/
 
METAR text: RODN 210707Z AUTO 20023G30KT 10SM FEW001 BKN013 27/26 A2934 RMK AO2 RAE0656 CIG 008V015 CIG 010 RWY23 SLP940 $
Conditions at: RODN (KADENA (USAFB-NA, JP) observed 0707 UTC 21 July 2018
Temperature: 27.0°C (81°F)
Dewpoint: 26.0°C (79°F) [RH = 94%]
Pressure (altimeter): 29.34 inches Hg (993.6 mb)
[Sea-level pressure: 994.0 mb]
Winds: from the SSW (200 degrees) at 26 MPH (23 knots; 12.0 m/s)
gusting to 34 MPH (30 knots; 15.6 m/s)
Visibility: 10 or more miles (16+ km)
Ceiling: 1300 feet AGL
Clouds: few clouds at 100 feet AGL
broken clouds at 1300 feet AGL
Weather:
SOME DATA ABOVE MAY BE INACCURATE!!!
"$" is an indication the sensor requires maintenance

METAR text: ROTM 210656Z COR 24009KT 8000 -SHRA BR BKN008 OVC010 27/26 A2934 RMK SLP938 STNPR29090 P0014 T02730261
Conditions at: ROTM (FUTENMA(US-MCAS), JP) observed 0656 UTC 21 July 2018
Temperature: 27.3°C (81°F)
Dewpoint: 26.1°C (79°F) [RH = 93%]
Pressure (altimeter): 29.34 inches Hg (993.6 mb)
[Sea-level pressure: 993.8 mb]
Winds: from the WSW (240 degrees) at 10 MPH (9 knots; 4.7 m/s)
Visibility: 5 miles (8 km)
Ceiling: 800 feet AGL
Clouds: broken clouds at 800 feet AGL
overcast cloud deck at 1000 feet AGL
Weather: -SHRA BR  (light rain showers, mist)

METAR text: ROAH 210700Z 21027G38KT 9999 -SHRA FEW008 BKN013 BKN020 28/26 Q0992 RMK 1ST008 5CU013 6CU020 A2932
Conditions at: ROAH (NAHA (CIV/JASDF), JP) observed 0700 UTC 21 July 2018
Temperature: 28.0°C (82°F)
Dewpoint: 26.0°C (79°F) [RH = 89%]
Pressure (altimeter): 29.29 inches Hg (992.0 mb)
Winds: from the SSW (210 degrees) at 31 MPH (27 knots; 14.0 m/s)
gusting to 44 MPH (38 knots; 19.8 m/s)
Visibility: 6 or more miles (10+ km)
Ceiling: 1300 feet AGL
Clouds: few clouds at 800 feet AGL
broken clouds at 1300 feet AGL
broken clouds at 2000 feet AGL
Weather: -SHRA  (light rain showers)